Data for 05/24/2006

Time Sea-Level Adjusted Pressure Absolute Pressure Temperature Relative Humidity Dew Point   
(mb) (inHg) (mb) (inHg) (C) (F) (%) (C) (F)
00:05 1020 30.12 849 25.07 11.1 52 58 3.1 37.6
00:10 1020 30.12 849 25.07 11 51.8 58 3.2 37.8
00:15 1020 30.12 849 25.07 10.9 51.5 59 3.3 37.9
00:20 1020 30.12 849 25.07 10.4 50.7 64 3.9 39
00:25 1020 30.12 849 25.07 10.3 50.5 61 3.2 37.7
00:30 1020 30.12 849 25.07 10.3 50.5 61 3.1 37.5
00:35 1020 30.12 849 25.07 10.2 50.4 60 2.8 37
00:40 1020 30.12 850 25.1 10.3 50.6 58 2.6 36.6
00:45 1020 30.12 849 25.07 10.3 50.5 59 2.7 36.8
00:50 1020 30.12 850 25.1 10.3 50.5 60 3 37.3
00:55 1020 30.12 850 25.1 10.1 50.2 61 2.9 37.3
01:00 1020 30.12 850 25.1 10.1 50.1 61 2.9 37.2
01:05 1020 30.12 850 25.1 10.1 50.2 60 2.7 36.9
01:10 1020 30.12 850 25.1 10.2 50.4 59 2.6 36.7
01:15 1020 30.12 850 25.1 10.4 50.6 58 2.6 36.7
01:20 1020 30.12 850 25.1 10.5 50.9 59 2.8 37
01:25 1021 30.15 850 25.1 10.2 50.4 61 3 37.5
01:30 1021 30.15 850 25.1 10 49.9 61 2.9 37.3
01:35 1021 30.15 850 25.1 9.9 49.7 61 2.8 37
01:40 1021 30.15 850 25.1 9.7 49.5 62 2.8 37.1
01:45 1021 30.15 850 25.1 9.6 49.2 62 2.8 37
01:50 1021 30.15 850 25.1 9.6 49.3 62 2.8 37.1
01:55 1021 30.15 850 25.1 9.6 49.3 62 2.7 36.9
02:00 1021 30.15 850 25.1 9.7 49.4 62 2.7 36.9
02:05 1021 30.15 850 25.1 9.7 49.4 62 2.7 36.9
02:10 1021 30.15 850 25.1 9.4 49 63 2.7 36.8
02:15 1021 30.15 850 25.1 9.4 48.8 62 2.6 36.6
02:20 1021 30.15 850 25.1 9.4 48.9 63 2.6 36.7
02:25 1021 30.15 850 25.1 9.2 48.6 64 2.7 36.9
02:30 1021 30.15 850 25.1 9 48.1 65 2.8 37
02:35 1021 30.15 850 25.1 8.7 47.6 66 2.7 36.9
02:40 1021 30.15 850 25.1 8.5 47.3 68 2.9 37.3
02:45 1021 30.15 850 25.1 8.4 47.1 66 2.4 36.4
02:50 1021 30.15 850 25.1 8.6 47.4 67 2.7 36.9
02:55 1021 30.15 850 25.1 8.4 47.1 68 2.8 37
03:00 1021 30.15 850 25.1 8.4 47.1 67 2.6 36.7
03:05 1021 30.15 850 25.1 8.4 47.2 66 2.6 36.6
03:10 1021 30.15 850 25.1 8.4 47.1 67 2.7 36.9
03:15 1021 30.15 851 25.13 8.4 47.1 67 2.7 36.8
03:20 1021 30.15 851 25.13 8.4 47 67 2.7 36.8
03:25 1021 30.15 851 25.13 8.2 46.7 68 2.7 36.9
03:30 1021 30.15 851 25.13 7.6 45.7 71 2.8 37
03:35 1022 30.18 851 25.13 7.4 45.4 71 2.6 36.6
03:40 1022 30.18 851 25.13 7.4 45.3 71 2.5 36.4
03:45 1022 30.18 851 25.13 7.5 45.6 70 2.4 36.2
03:50 1022 30.18 851 25.13 7.7 45.9 69 2.4 36.3
03:55 1022 30.18 851 25.13 7.8 46.1 68 2.2 36
04:00 1022 30.18 851 25.13 7.9 46.2 67 2.3 36.1
04:05 1022 30.18 851 25.13 7.9 46.1 67 2.2 36
04:10 1022 30.18 851 25.13 7.8 46.1 68 2.3 36.1
04:15 1022 30.18 851 25.13 7.8 46 67 2.2 35.9
04:20 1022 30.18 851 25.13 7.7 45.9 67 2.1 35.8
04:25 1022 30.18 851 25.13 7.9 46.2 67 2.1 35.8
04:30 1022 30.18 851 25.13 7.9 46.2 66 1.9 35.4
04:35 1022 30.18 851 25.13 8.2 46.8 64 1.8 35.3
04:40 1022 30.18 851 25.13 8.4 47.1 65 2.1 35.8
04:45 1022 30.18 851 25.13 8.2 46.8 65 2 35.6
04:50 1022 30.18 851 25.13 8.3 46.9 63 1.8 35.2
04:55 1022 30.18 851 25.13 8.4 47.1 63 1.8 35.2
05:00 1022 30.18 851 25.13 8.4 47 65 2.2 36
05:05 1022 30.18 851 25.13 8 46.5 66 2 35.7
05:10 1022 30.18 851 25.13 8.1 46.6 65 1.9 35.4
05:15 1022 30.18 851 25.13 8.1 46.6 65 2 35.6
05:20 1022 30.18 851 25.13 7.9 46.3 66 2.1 35.8
05:25 1022 30.18 851 25.13 7.7 45.9 68 2.2 35.9
05:30 1022 30.18 851 25.13 7.5 45.5 69 2.2 35.9
05:35 1022 30.18 851 25.13 7.3 45.1 69 2.1 35.7
05:40 1022 30.18 851 25.13 7.1 44.8 69 1.9 35.5
05:45 1022 30.18 851 25.13 7.4 45.3 67 1.7 35
05:50 1022 30.18 851 25.13 7.5 45.6 67 1.9 35.4
05:55 1022 30.18 851 25.13 7.3 45.2 69 2 35.6
06:00 1022 30.18 851 25.13 6.9 44.5 71 2 35.6
06:05 1022 30.18 851 25.13 6.8 44.2 69 1.6 34.9
06:10 1022 30.18 852 25.16 7.2 44.9 68 1.7 35
06:15 1022 30.18 851 25.13 7.2 45 69 1.9 35.3
06:20 1022 30.18 851 25.13 7.2 45 69 1.9 35.4
06:25 1022 30.18 851 25.13 7.2 44.9 69 1.9 35.5
06:30 1022 30.18 851 25.13 6.9 44.5 70 1.9 35.5
06:35 1022 30.18 852 25.16 6.8 44.3 72 2 35.7
06:40 1022 30.18 852 25.16 6.7 44 72 2 35.6
06:45 1022 30.18 852 25.16 6.9 44.4 72 2.1 35.8
06:50 1022 30.18 852 25.16 7.1 44.7 70 2 35.6
06:55 1023 30.21 852 25.16 7.4 45.3 68 1.8 35.3
07:00 1023 30.21 852 25.16 7.8 46 67 2 35.6
07:05 1023 30.21 852 25.16 8.3 46.9 66 2.3 36.1
07:10 1023 30.21 852 25.16 8.5 47.2 65 2.3 36.2
07:15 1023 30.21 852 25.16 8.6 47.5 65 2.4 36.4
07:20 1023 30.21 852 25.16 8.7 47.6 66 2.7 36.9
07:25 1023 30.21 852 25.16 8.9 48 64 2.5 36.4
07:30 1023 30.21 852 25.16 9.3 48.8 62 2.4 36.4
07:35 1023 30.21 852 25.16 9.6 49.3 61 2.5 36.6
07:40 1023 30.21 852 25.16 10.1 50.1 60 2.7 36.9
07:45 1023 30.21 852 25.16 10.9 51.6 56 2.5 36.5
07:50 1023 30.21 852 25.16 11 51.9 57 2.8 37.1
07:55 1023 30.21 852 25.16 11.5 52.8 56 3.1 37.6
08:00 1023 30.21 852 25.16 11.6 52.8 55 3 37.4
08:05 1023 30.21 852 25.16 12 53.6 54 3 37.5
08:10 1023 30.21 852 25.16 12.4 54.4 53 3.2 37.8
08:15 1023 30.21 852 25.16 12.7 54.8 53 3.4 38.1
08:20 1023 30.21 852 25.16 12.9 55.2 53 3.6 38.5
08:25 1023 30.21 852 25.16 13.1 55.7 53 3.8 38.9
08:30 1023 30.21 852 25.16 13.2 55.8 53 3.9 39
08:35 1023 30.21 852 25.16 13.1 55.6 53 3.8 38.9
08:40 1023 30.21 852 25.16 13.5 56.3 52 3.8 38.9
08:45 1023 30.21 852 25.16 14.3 57.7 49 3.9 39.1
08:50 1023 30.21 852 25.16 14.7 58.5 48 3.9 39
08:55 1023 30.21 852 25.16 15.4 59.7 45 3.5 38.3
09:00 1023 30.21 852 25.16 15.8 60.4 43 3.2 37.8
09:05 1023 30.21 852 25.16 14.9 58.7 45 3 37.3
09:10 1023 30.21 852 25.16 15.2 59.3 43 2.7 36.9
09:15 1023 30.21 852 25.16 16.1 61 40 2.6 36.6
09:20 1023 30.21 852 25.16 16.7 62 39 2.8 37
09:25 1023 30.21 852 25.16 16.9 62.4 39 3.1 37.6
09:30 1023 30.21 852 25.16 17 62.6 39 3.1 37.5
09:35 1023 30.21 852 25.16 17 62.6 39 3.2 37.8
09:40 1023 30.21 852 25.16 16 60.7 43 3.4 38.1
09:45 1023 30.21 852 25.16 16.5 61.6 37 1.9 35.5
09:50 1023 30.21 852 25.16 16.7 62.1 38 2.3 36.1
09:55 1023 30.21 852 25.16 16.9 62.4 35 1.6 34.9
10:00 1023 30.21 852 25.16 17.6 63.6 35 1.9 35.4
10:05 1023 30.21 852 25.16 18 64.4 34 2 35.7
10:10 1023 30.21 852 25.16 18.3 64.9 34 2.4 36.4
10:15 1023 30.21 852 25.16 18 64.4 35 2.5 36.5
10:20 1023 30.21 852 25.16 17.5 63.6 35 2 35.6
10:25 1023 30.21 852 25.16 17.1 62.8 37 2.2 36
10:30 1023 30.21 852 25.16 17.4 63.4 35 1.9 35.4
10:35 1023 30.21 852 25.16 18.1 64.5 33 1.7 35
10:40 1023 30.21 852 25.16 18.7 65.6 31 1.5 34.7
10:45 1023 30.21 852 25.16 18.3 64.9 35 2.8 37
10:50 1023 30.21 852 25.16 18.6 65.4 33 2 35.6
10:55 1023 30.21 852 25.16 19.3 66.7 32 2.4 36.4
11:00 1023 30.21 852 25.16 19.8 67.7 32 2.8 37.1
11:05 1023 30.21 852 25.16 19.9 67.9 29 1.5 34.7
11:10 1022 30.18 852 25.16 19.2 66.5 29 0.7 33.3
11:15 1022 30.18 852 25.16 19 66.3 31 1.8 35.3
11:20 1022 30.18 852 25.16 19.9 67.7 27 0.4 32.7
11:25 1022 30.18 851 25.13 20 67.9 27 0.6 33
11:30 1022 30.18 851 25.13 19.3 66.7 29 0.8 33.4
11:35 1022 30.18 851 25.13 19.3 66.8 26 -0.4 31.4
11:40 1022 30.18 851 25.13 19.7 67.5 26 -0.1 31.9
11:45 1022 30.18 851 25.13 19.8 67.6 28 0.7 33.3
11:50 1022 30.18 851 25.13 19.5 67.1 28 0.4 32.8
11:55 1022 30.18 851 25.13 19.6 67.2 28 0.6 33.1
12:00 1022 30.18 851 25.13 19.8 67.6 29 1.2 34.2
12:05 1022 30.18 851 25.13 20.2 68.4 26 0.4 32.7
12:10 1022 30.18 851 25.13 20.7 69.2 24 -0.2 31.7
12:15 1022 30.18 851 25.13 20.6 69 27 1 33.9
12:20 1022 30.18 851 25.13 21 69.8 25 0.3 32.6
12:25 1022 30.18 851 25.13 20.8 69.4 25 0.1 32.1
12:30 1022 30.18 851 25.13 20.1 68.2 27 0.5 32.9
12:35 1022 30.18 851 25.13 20.5 68.9 25 -0.2 31.7
12:40 1022 30.18 851 25.13 21 69.7 25 0.2 32.4
12:45 1022 30.18 851 25.13 21.1 69.9 24 -0.4 31.3
12:50 1022 30.18 851 25.13 21 69.8 26 0.7 33.3
12:55 1021 30.15 851 25.13 20.7 69.3 22 -1.6 29.1
13:00 1021 30.15 851 25.13 21 69.8 21 -2.1 28.3
13:05 1021 30.15 851 25.13 20.7 69.2 22 -1.8 28.8
13:10 1021 30.15 851 25.13 21.7 71.1 21 -1.6 29.1
13:15 1021 30.15 850 25.1 21.9 71.4 22 -0.6 30.9
13:20 1021 30.15 850 25.1 21.8 71.2 21 -1.5 29.4
13:25 1021 30.15 850 25.1 22 71.5 20 -1.7 28.9
13:30 1021 30.15 850 25.1 21.9 71.4 21 -1.4 29.5
13:35 1021 30.15 850 25.1 21.9 71.4 23 -0.2 31.7
13:40 1021 30.15 850 25.1 22.5 72.5 21 -0.7 30.7
13:45 1021 30.15 850 25.1 22 71.7 21 -1 30.1
13:50 1021 30.15 850 25.1 22.2 71.9 21 -1 30.2
13:55 1021 30.15 850 25.1 22.4 72.4 20 -1.3 29.7
14:00 1021 30.15 850 25.1 22.4 72.4 20 -1.5 29.3
14:05 1021 30.15 850 25.1 22.3 72.1 20 -1.8 28.8
14:10 1020 30.12 850 25.1 22.3 72.2 20 -1.8 28.8
14:15 1020 30.12 849 25.07 22.3 72.2 20 -1.2 29.8
14:20 1020 30.12 849 25.07 22.4 72.3 21 -0.9 30.4
14:25 1020 30.12 849 25.07 23.1 73.5 20 -1 30.3
14:30 1020 30.12 849 25.07 23.4 74.1 18 -1.8 28.7
14:35 1020 30.12 849 25.07 23.3 73.9 20 -0.8 30.6
14:40 1020 30.12 849 25.07 23.1 73.6 20 -0.8 30.6
14:45 1020 30.12 849 25.07 22.7 72.8 21 -0.6 30.9
14:50 1020 30.12 849 25.07 22.7 72.8 20 -1 30.2
14:55 1020 30.12 849 25.07 22.8 73 20 -1.1 30
15:00 1020 30.12 849 25.07 23.1 73.5 21 -0.2 31.7
15:05 1020 30.12 849 25.07 22.9 73.3 20 -1.3 29.6
15:10 1020 30.12 849 25.07 23.3 73.9 20 -0.9 30.5
15:15 1020 30.12 849 25.07 23.2 73.7 20 -0.5 31.1
15:20 1020 30.12 849 25.07 23.5 74.3 20 -0.5 31.1
15:25 1020 30.12 849 25.07 23.4 74.1 20 -0.8 30.5
15:30 1020 30.12 849 25.07 23.5 74.3 19 -1 30.3
15:35 1020 30.12 849 25.07 23.8 74.8 18 -1.7 28.9
15:40 1019 30.09 849 25.07 24.1 75.4 19 -0.5 31.1
15:45 1019 30.09 849 25.07 23.9 75.1 19 -0.5 31
15:50 1019 30.09 848 25.04 23.9 75 19 -1 30.2
15:55 1019 30.09 848 25.04 24.3 75.7 18 -1 30.1
16:00 1019 30.09 848 25.04 24.3 75.7 19 -0.8 30.6
16:05 1019 30.09 848 25.04 24.2 75.6 19 -0.9 30.4
16:10 1019 30.09 848 25.04 24.1 75.3 19 -1.1 30
16:15 1019 30.09 848 25.04 24.2 75.6 19 -0.3 31.4
16:20 1019 30.09 848 25.04 24.9 76.9 17 -1.2 29.8
16:25 1019 30.09 848 25.04 24.8 76.7 19 0.1 32.3
16:30 1019 30.09 848 25.04 24.4 75.9 19 -0.2 31.7
16:35 1019 30.09 848 25.04 24.7 76.5 21 1 33.7
16:40 1019 30.09 848 25.04 24.1 75.4 20 -0.3 31.5
16:45 1019 30.09 848 25.04 23.5 74.3 22 0.6 33
16:50 1019 30.09 848 25.04 23 73.4 23 1.1 34
16:55 1019 30.09 848 25.04 21.9 71.3 23 -0 31.9
17:00 1019 30.09 848 25.04 22.6 72.6 22 -0.1 31.9
17:05 1019 30.09 848 25.04 22.8 73 22 0.5 32.9
17:10 1019 30.09 848 25.04 22.7 72.8 23 0.7 33.2
17:15 1019 30.09 848 25.04 21.9 71.5 23 -0.1 31.8
17:20 1019 30.09 848 25.04 21.5 70.6 23 -0.4 31.3
17:25 1019 30.09 848 25.04 21.5 70.7 23 -0.5 31
17:30 1019 30.09 848 25.04 21.8 71.3 22 -0.4 31.3
17:35 1018 30.06 848 25.04 22.4 72.4 22 -0 31.9
17:40 1018 30.06 848 25.04 22.3 72.2 22 -0.3 31.5
17:45 1018 30.06 848 25.04 21.9 71.5 23 -0 31.9
17:50 1018 30.06 847 25.01 22.1 71.8 22 -0.3 31.5
17:55 1018 30.06 847 25.01 22.6 72.7 22 -0.3 31.5
18:00 1018 30.06 847 25.01 22.9 73.2 21 -0.6 30.8
18:05 1018 30.06 847 25.01 22.8 73 22 -0.1 31.9
18:10 1018 30.06 847 25.01 22.3 72.2 23 0.1 32.2
18:15 1018 30.06 847 25.01 22.9 73.1 21 -0.2 31.6
18:20 1018 30.06 847 25.01 23.1 73.6 21 0.1 32.2
18:25 1018 30.06 847 25.01 22.5 72.4 22 -0.3 31.4
18:30 1018 30.06 847 25.01 22.6 72.7 23 0.5 32.9
18:35 1018 30.06 847 25.01 22.4 72.3 23 0.4 32.7
18:40 1018 30.06 847 25.01 22.4 72.4 23 0.5 32.9
18:45 1018 30.06 847 25.01 22.3 72.2 24 0.8 33.5
18:50 1018 30.06 847 25.01 22.5 72.4 26 2 35.6
18:55 1018 30.06 847 25.01 22.5 72.6 23 0.6 33
19:00 1018 30.06 847 25.01 22.2 72 23 0.3 32.5
19:05 1018 30.06 847 25.01 22.5 72.5 23 0.4 32.8
19:10 1018 30.06 847 25.01 22.3 72.2 25 1.5 34.7
19:15 1018 30.06 847 25.01 21.8 71.3 25 1.2 34.2
19:20 1018 30.06 847 25.01 21.6 70.8 26 1.6 34.9
19:25 1018 30.06 847 25.01 21.5 70.7 27 1.9 35.4
19:30 1018 30.06 847 25.01 21.4 70.5 26 1.4 34.5
19:35 1018 30.06 847 25.01 21.3 70.4 27 1.6 34.9
19:40 1018 30.06 847 25.01 21.6 70.8 27 2 35.6
19:45 1018 30.06 847 25.01 21.7 71.1 25 1.1 33.9
19:50 1018 30.06 847 25.01 21.6 70.9 27 2 35.5
19:55 1018 30.06 847 25.01 21.5 70.6 25 1.1 33.9
20:00 1018 30.06 847 25.01 21.4 70.5 27 1.7 35.1
20:05 1018 30.06 847 25.01 21.2 70.1 28 2.3 36.2
20:10 1018 30.06 847 25.01 21 69.7 29 2.2 36
20:15 1018 30.06 847 25.01 20.7 69.3 29 2.3 36.1
20:20 1018 30.06 847 25.01 20.5 69 31 3.2 37.7
20:25 1018 30.06 847 25.01 20.3 68.5 32 3.3 38
20:30 1018 30.06 847 25.01 20.2 68.3 32 3.1 37.6
20:35 1017 30.03 847 25.01 20 68.1 32 3.2 37.7
20:40 1017 30.03 847 25.01 19.9 67.7 34 3.7 38.7
20:45 1017 30.03 847 25.01 19.6 67.2 34 3.5 38.4
20:50 1017 30.03 847 25.01 19.5 67.2 34 3.5 38.3
20:55 1017 30.03 847 25.01 19.4 66.8 35 3.8 38.8
21:00 1017 30.03 847 25.01 19.1 66.3 37 4.2 39.6
21:05 1017 30.03 847 25.01 18.8 65.8 38 4.3 39.7
21:10 1017 30.03 847 25.01 18.6 65.5 39 4.5 40.1
21:15 1017 30.03 847 25.01 18.5 65.3 39 4.3 39.7
21:20 1017 30.03 847 25.01 18.4 65.1 42 5.6 42
21:25 1017 30.03 847 25.01 18.1 64.7 40 4.5 40.1
21:30 1017 30.03 847 25.01 17.8 64.1 40 4.2 39.6
21:35 1017 30.03 847 25.01 17.5 63.6 41 4.2 39.6
21:40 1017 30.03 847 25.01 17.2 63 41 4.1 39.3
21:45 1018 30.06 847 25.01 17 62.7 43 4.4 39.9
21:50 1018 30.06 847 25.01 17 62.5 44 4.6 40.2
21:55 1018 30.06 847 25.01 16.9 62.3 44 4.7 40.4
22:00 1018 30.06 847 25.01 16.8 62.2 44 4.5 40
22:05 1017 30.03 847 25.01 16.7 62.1 44 4.4 39.9
22:10 1017 30.03 847 25.01 16.6 61.9 45 4.6 40.3
22:15 1017 30.03 847 25.01 16.5 61.7 44 4.5 40.1
22:20 1017 30.03 847 25.01 16.5 61.6 45 4.7 40.5
22:25 1017 30.03 847 25.01 16.3 61.3 45 4.3 39.8
22:30 1017 30.03 846 24.98 16.3 61.3 46 4.8 40.7
22:35 1017 30.03 846 24.98 15.9 60.5 47 4.6 40.3
22:40 1017 30.03 846 24.98 15.7 60.3 46 4.4 39.8
22:45 1017 30.03 846 24.98 15.8 60.4 47 4.6 40.3
22:50 1017 30.03 846 24.98 16 60.7 44 3.9 38.9
22:55 1017 30.03 846 24.98 16.3 61.3 42 3.4 38.2
23:00 1017 30.03 846 24.98 16.4 61.5 44 4.2 39.6
23:05 1017 30.03 846 24.98 16.1 60.9 44 3.9 39
23:10 1017 30.03 846 24.98 16.3 61.3 43 3.7 38.7
23:15 1017 30.03 846 24.98 16.2 61.1 43 3.7 38.7
23:20 1017 30.03 846 24.98 16 60.8 44 3.8 38.9
23:25 1017 30.03 846 24.98 15.9 60.5 43 3.4 38.2
23:30 1017 30.03 846 24.98 16 60.8 42 3 37.5
23:35 1017 30.03 846 24.98 16.1 61 42 3.4 38.2
23:40 1017 30.03 846 24.98 16.2 61.1 41 2.9 37.2
23:45 1017 30.03 846 24.98 16.5 61.7 40 2.8 37.1
23:50 1016 30 846 24.98 16.6 61.8 40 3 37.3
23:55 1016 30 846 24.98 16.6 61.8 39 2.6 36.7
24:00 1016 30 846 24.98 16.6 61.9 39 2.8 37.1